Summit, New Jersey
Current Conditions -  °F | °C
As of 4:35 AM on Friday 24 Oct 2014 (Local Time) from KMMU Reporting Station
Overcast Overcast  
Wind Chill: 52°   Ceiling: 2300
Heat Index: 52°   Visibility: 10mi
Dew Point: 43°   Wind: 0mph
Humidity: 71%   Direction: NA
Pressure: 29.81"   Gusts: NA
Location:  40.72°N, 74.36°W
Report Text: KMMU 240835Z AUTO 00000KT 10SM OVC023 11/06 A2981 RMK AO2
Loading
Personal Weather Stations






























Interactive Weather Map
Tropical Storm Tracking
New forecast layout! Learn more

10-Day Weather Forecast

Advertisements
Track Severe Weather on mobile